Latest Weather Observations for South Channel Island

IDV60801

Issued at 12:22 am EST Thursday 25 April 2019 (issued every 10 minutes, with the page automatically refreshed every 10 minutes)

About weather observations | Map of weather stations | Latest weather observations for VIC | Other Formats
Station Details ID: 086344 Name: SOUTH CHANNEL ISLAND Lat: -38.31 Lon: 144.80 Height: 9.0 m
Data from the previous 72 hours. | See also: Recent months at South Channel Island
Date/Time
EST
Temp
°C
App
Temp
°C
Dew
Point
°C
Rel
Hum
%
Delta-T
°C
Wind Press
QNH
hPa
Press
MSL
hPa
Rain since
9am
mm
Dir  Spd
km/h
Gust
km/h
Spd
kts
Gust
kts
25/12:00am - - - - - W 22 28 12 15 - - -
 
Date/Time
EST
Temp
°C
App
Temp
°C
Dew
Point
°C
Rel
Hum
%
Delta-T
°C
Wind Press
QNH
hPa
Press
MSL
hPa
Rain since
9am
mm
Dir  Spd
km/h
Gust
km/h
Spd
kts
Gust
kts
24/11:30pm - - - - - WNW 22 26 12 14 - - -
24/11:00pm - - - - - WNW 24 28 13 15 - - -
24/10:30pm - - - - - WNW 24 28 13 15 - - -
24/10:00pm - - - - - W 28 32 15 17 - - -
24/09:30pm - - - - - WNW 26 32 14 17 - - -
24/09:00pm - - - - - NW 26 30 14 16 - - -
24/08:30pm - - - - - W 11 17 6 9 - - -
24/08:00pm - - - - - WSW 13 15 7 8 - - -
24/07:30pm - - - - - SW 19 22 10 12 - - -
24/07:00pm - - - - - SSW 20 26 11 14 - - -
24/06:30pm - - - - - SSW 17 19 9 10 - - -
24/06:00pm - - - - - SSW 19 24 10 13 - - -
24/05:30pm - - - - - S 20 26 11 14 - - -
24/05:00pm - - - - - S 26 30 14 16 - - -
24/04:30pm - - - - - SSW 32 35 17 19 - - -
24/04:00pm - - - - - SSW 35 41 19 22 - - -
24/03:30pm - - - - - S 33 39 18 21 - - -
24/03:00pm - - - - - SSW 28 32 15 17 - - -
24/02:30pm - - - - - SW 9 15 5 8 - - -
24/02:00pm - - - - - WSW 2 7 1 4 - - -
24/01:30pm - - - - - WSW 6 9 3 5 - - -
24/01:00pm - - - - - WSW 2 7 1 4 - - -
24/12:30pm - - - - - W 9 11 5 6 - - -
24/12:00pm - - - - - WNW 13 15 7 8 - - -
24/11:30am - - - - - W 11 15 6 8 - - -
24/11:00am - - - - - WSW 13 17 7 9 - - -
24/10:30am - - - - - NW 9 13 5 7 - - -
24/10:00am - - - - - NNW 9 13 5 7 - - -
24/09:30am - - - - - N 15 17 8 9 - - -
24/09:00am - - - - - NNE 11 13 6 7 - - -
24/08:30am - - - - - E 7 9 4 5 - - -
24/08:00am - - - - - ESE 7 9 4 5 - - -
24/07:30am - - - - - SSE 9 11 5 6 - - -
24/07:00am - - - - - SSE 9 11 5 6 - - -
24/06:30am - - - - - SSE 11 13 6 7 - - -
24/06:00am - - - - - SSE 11 13 6 7 - - -
24/05:30am - - - - - SSE 13 15 7 8 - - -
24/05:00am - - - - - SSE 13 17 7 9 - - -
24/04:30am - - - - - SSE 15 17 8 9 - - -
24/04:00am - - - - - SSE 17 19 9 10 - - -
24/03:30am - - - - - SSE 17 19 9 10 - - -
24/03:00am - - - - - SSE 17 20 9 11 - - -
24/02:30am - - - - - SSE 17 17 9 9 - - -
24/02:00am - - - - - SSE 15 17 8 9 - - -
24/01:30am - - - - - S 17 19 9 10 - - -
24/01:00am - - - - - SSE 17 19 9 10 - - -
24/12:30am - - - - - SE 17 19 9 10 - - -
24/12:00am - - - - - SE 17 19 9 10 - - -
 
Date/Time
EST
Temp
°C
App
Temp
°C
Dew
Point
°C
Rel
Hum
%
Delta-T
°C
Wind Press
QNH
hPa
Press
MSL
hPa
Rain since
9am
mm
Dir  Spd
km/h
Gust
km/h
Spd
kts
Gust
kts
23/11:30pm - - - - - SSE 15 17 8 9 - - -
23/11:00pm - - - - - SSE 17 19 9 10 - - -
23/10:30pm - - - - - SSE 17 22 9 12 - - -
23/10:00pm - - - - - SSE 19 22 10 12 - - -
23/09:30pm - - - - - SSE 20 24 11 13 - - -
23/09:00pm - - - - - SE 22 26 12 14 - - -
23/08:30pm - - - - - SSE 24 28 13 15 - - -
23/08:00pm - - - - - SSE 26 30 14 16 - - -
23/07:30pm - - - - - SSE 28 32 15 17 - - -
23/07:00pm - - - - - SSE 30 33 16 18 - - -
23/06:30pm - - - - - SSE 28 33 15 18 - - -
23/06:00pm - - - - - SSE 28 32 15 17 - - -
23/05:30pm - - - - - S 30 33 16 18 - - -
23/05:00pm - - - - - S 26 32 14 17 - - -
23/04:30pm - - - - - SSE 24 30 13 16 - - -
23/04:00pm - - - - - S 28 32 15 17 - - -
23/03:30pm - - - - - S 30 33 16 18 - - -
23/03:00pm - - - - - S 28 32 15 17 - - -
23/02:30pm - - - - - S 26 32 14 17 - - -
23/02:25pm - - - - - S 28 32 15 17 - - -
23/02:00pm - - - - - N 6 7 3 4 - - -
23/01:30pm - - - - - N 7 7 4 4 - - -
23/01:00pm - - - - - NNE 6 7 3 4 - - -
23/12:30pm - - - - - NE 2 7 1 4 - - -
23/12:00pm - - - - - NE 6 7 3 4 - - -
23/11:30am - - - - - NE 9 11 5 6 - - -
23/11:00am - - - - - ESE 11 13 6 7 - - -
23/10:30am - - - - - ESE 13 17 7 9 - - -
23/10:00am - - - - - SSE 13 15 7 8 - - -
23/09:30am - - - - - SE 13 15 7 8 - - -
23/09:00am - - - - - SE 11 13 6 7 - - -
23/08:30am - - - - - ESE 11 13 6 7 - - -
23/08:00am - - - - - SE 11 13 6 7 - - -
23/07:30am - - - - - ESE 11 15 6 8 - - -
23/07:00am - - - - - SSE 13 15 7 8 - - -
23/06:30am - - - - - SE 13 15 7 8 - - -
23/06:00am - - - - - SE 13 17 7 9 - - -
23/05:30am - - - - - SE 13 15 7 8 - - -
23/05:00am - - - - - SE 13 17 7 9 - - -
23/04:30am - - - - - SE 13 17 7 9 - - -
23/04:00am - - - - - SE 13 15 7 8 - - -
23/03:30am - - - - - SE 13 15 7 8 - - -
23/03:00am - - - - - SE 13 15 7 8 - - -
23/02:30am - - - - - SE 13 15 7 8 - - -
23/02:00am - - - - - SE 13 15 7 8 - - -
23/01:30am - - - - - SE 15 17 8 9 - - -
23/01:00am - - - - - SE 15 19 8 10 - - -
23/12:30am - - - - - SE 17 19 9 10 - - -
23/12:00am - - - - - SE 17 20 9 11 - - -
 
Date/Time
EST
Temp
°C
App
Temp
°C
Dew
Point
°C
Rel
Hum
%
Delta-T
°C
Wind Press
QNH
hPa
Press
MSL
hPa
Rain since
9am
mm
Dir  Spd
km/h
Gust
km/h
Spd
kts
Gust
kts
22/11:30pm - - - - - SE 17 20 9 11 - - -
22/11:00pm - - - - - SE 17 20 9 11 - - -
22/10:30pm - - - - - SE 17 19 9 10 - - -
22/10:00pm - - - - - SE 19 19 10 10 - - -
22/09:30pm - - - - - SE 17 20 9 11 - - -
22/09:00pm - - - - - SSE 15 17 8 9 - - -
22/08:30pm - - - - - SSE 15 17 8 9 - - -
22/08:00pm - - - - - SSE 15 19 8 10 - - -
22/07:30pm - - - - - SE 17 20 9 11 - - -
22/07:00pm - - - - - SE 20 24 11 13 - - -
22/06:30pm - - - - - SE 22 26 12 14 - - -
22/06:00pm - - - - - SSE 22 26 12 14 - - -
22/05:30pm - - - - - S 22 26 12 14 - - -
22/05:00pm - - - - - S 22 28 12 15 - - -
22/04:30pm - - - - - S 24 30 13 16 - - -
22/04:00pm - - - - - S 17 22 9 12 - - -
22/03:30pm - - - - - S 17 19 9 10 - - -
22/03:00pm - - - - - S 17 19 9 10 - - -
22/02:30pm - - - - - SSW 17 20 9 11 - - -
22/02:00pm - - - - - S 19 24 10 13 - - -
22/01:30pm - - - - - SSW 20 28 11 15 - - -
22/01:00pm - - - - - SSW 19 24 10 13 - - -
22/12:30pm - - - - - SSW 20 26 11 14 - - -
22/12:00pm - - - - - SSW 17 20 9 11 - - -
22/11:30am - - - - - SSW 13 17 7 9 - - -
22/11:00am - - - - - S 15 19 8 10 - - -
22/10:30am - - - - - S 15 17 8 9 - - -
22/10:00am - - - - - S 17 28 9 15 - - -
22/09:30am - - - - - S 19 24 10 13 - - -
22/09:00am - - - - - S 20 24 11 13 - - -
22/08:30am - - - - - SSW 17 20 9 11 - - -
22/08:00am - - - - - SSW 20 26 11 14 - - -
22/07:30am - - - - - SSW 19 24 10 13 - - -
22/07:00am - - - - - SSW 20 26 11 14 - - -
22/06:30am - - - - - SSW 19 24 10 13 - - -
22/06:00am - - - - - SSW 20 24 11 13 - - -
22/05:30am - - - - - SSW 22 28 12 15 - - -
22/05:00am - - - - - SSW 22 28 12 15 - - -
22/04:30am - - - - - SSW 26 30 14 16 - - -
22/04:00am - - - - - SSW 24 26 13 14 - - -
22/03:30am - - - - - SW 22 24 12 13 - - -
22/03:00am - - - - - SSW 22 26 12 14 - - -
22/02:30am - - - - - SSW 20 26 11 14 - - -
22/02:00am - - - - - SSW 17 20 9 11 - - -
22/01:30am - - - - - SSW 26 30 14 16 - - -
22/01:00am - - - - - SSW 26 32 14 17 - - -
22/12:30am - - - - - SW 33 37 18 20 - - -

Other formats

Comma delimited format used in spreadsheet applications
http://www.bom.gov.au/fwo/IDV60801/IDV60801.94853.axf

JavaScript Object Notation format (JSON) in row-major order
http://www.bom.gov.au/fwo/IDV60801/IDV60801.94853.json

Data quality

Most of these data are generated automatically and are frequently updated. Quality checks on data are not normally performed. It is possible for incorrect values to appear. Refer to information at About Latest Weather Observations and please check the disclaimer before using these data.